Time,TemperatureF,DewpointF,PressureIn,WindDirection,WindDirectionDegrees,WindSpeedMPH,WindSpeedGustMPH,Humidity,HourlyPrecipIn,Conditions,Clouds,dailyrainin,SoftwareType,DateUTC
2013-03-08 00:00:00,36.6,36.0,29.87,SSE,154,0.0,-999.0,96,-99.99,,,0.00,weatherlink.com 1.10,2013-03-08 08:00:00,
2013-03-08 00:15:00,36.1,35.0,29.87,SSE,154,0.0,-999.0,96,-99.99,,,0.00,weatherlink.com 1.10,2013-03-08 08:15:00,
2013-03-08 00:30:00,35.7,35.0,29.87,SSE,154,0.0,-999.0,96,-99.99,,,0.00,weatherlink.com 1.10,2013-03-08 08:30:00,
2013-03-08 00:45:00,35.4,35.0,29.87,SSE,154,0.0,-999.0,98,-99.99,,,0.00,weatherlink.com 1.10,2013-03-08 08:45:00,
2013-03-08 01:00:00,35.4,35.0,29.87,SSE,154,0.0,-999.0,98,-99.99,,,0.00,weatherlink.com 1.10,2013-03-08 09:00:00,
2013-03-08 01:15:00,35.1,35.0,29.87,SSE,154,0.0,-999.0,98,-99.99,,,0.00,weatherlink.com 1.10,2013-03-08 09:15:00,
2013-03-08 01:30:00,34.8,34.0,29.87,SSE,154,0.0,-999.0,98,-99.99,,,0.00,weatherlink.com 1.10,2013-03-08 09:30:00,
2013-03-08 01:45:00,34.8,35.0,29.87,SSE,154,0.0,-999.0,99,-99.99,,,0.00,weatherlink.com 1.10,2013-03-08 09:45:00,
2013-03-08 02:00:00,34.7,35.0,29.86,SSE,154,0.0,-999.0,99,-99.99,,,0.00,weatherlink.com 1.10,2013-03-08 10:00:00,
2013-03-08 02:15:00,34.7,35.0,29.86,SSE,154,0.0,-999.0,99,-99.99,,,0.00,weatherlink.com 1.10,2013-03-08 10:15:00,
2013-03-08 02:30:00,34.7,35.0,29.86,SSE,154,0.0,-999.0,99,-99.99,,,0.00,weatherlink.com 1.10,2013-03-08 10:30:00,
2013-03-08 02:45:00,34.6,34.0,29.86,SSE,154,0.0,-999.0,99,-99.99,,,0.00,weatherlink.com 1.10,2013-03-08 10:45:00,
2013-03-08 03:00:00,34.3,34.0,29.85,SSE,154,0.0,-999.0,99,-99.99,,,0.00,weatherlink.com 1.10,2013-03-08 11:00:00,
2013-03-08 03:15:00,33.8,34.0,29.85,SSE,154,0.0,-999.0,99,-99.99,,,0.00,weatherlink.com 1.10,2013-03-08 11:15:00,
2013-03-08 03:30:00,33.4,33.0,29.85,SSE,154,0.0,-999.0,99,-99.99,,,0.00,weatherlink.com 1.10,2013-03-08 11:30:00,
2013-03-08 03:45:00,32.9,33.0,29.85,SSE,154,0.0,-999.0,99,-99.99,,,0.00,weatherlink.com 1.10,2013-03-08 11:45:00,
2013-03-08 04:01:00,32.6,32.0,29.85,SSE,154,0.0,-999.0,99,-99.99,,,0.00,weatherlink.com 1.10,2013-03-08 12:01:00,
2013-03-08 04:15:00,32.3,32.0,29.85,SSE,154,0.0,-999.0,99,-99.99,,,0.00,weatherlink.com 1.10,2013-03-08 12:15:00,
2013-03-08 04:31:00,32.0,32.0,29.85,SSE,154,0.0,-999.0,99,-99.99,,,0.00,weatherlink.com 1.10,2013-03-08 12:31:00,
2013-03-08 04:46:00,31.7,32.0,29.85,SSE,154,0.0,-999.0,99,-99.99,,,0.00,weatherlink.com 1.10,2013-03-08 12:46:00,
2013-03-08 05:01:00,31.5,31.0,29.85,SSE,154,0.0,-999.0,99,-99.99,,,0.00,weatherlink.com 1.10,2013-03-08 13:01:00,
2013-03-08 05:16:00,31.2,31.0,29.85,SSE,154,0.0,-999.0,99,-99.99,,,0.00,weatherlink.com 1.10,2013-03-08 13:16:00,
2013-03-08 05:31:00,31.5,31.0,29.85,SSE,154,0.0,-999.0,99,-99.99,,,0.00,weatherlink.com 1.10,2013-03-08 13:31:00,
2013-03-08 05:46:00,31.2,31.0,29.86,SSE,154,0.0,-999.0,99,-99.99,,,0.00,weatherlink.com 1.10,2013-03-08 13:46:00,
2013-03-08 06:01:00,31.0,31.0,29.86,SSE,154,0.0,-999.0,99,-99.99,,,0.00,weatherlink.com 1.10,2013-03-08 14:01:00,
2013-03-08 06:16:00,30.6,30.0,29.86,SSE,154,0.0,-999.0,99,-99.99,,,0.00,weatherlink.com 1.10,2013-03-08 14:16:00,
2013-03-08 06:31:00,30.4,30.0,29.86,SSE,154,0.0,-999.0,99,-99.99,,,0.00,weatherlink.com 1.10,2013-03-08 14:31:00,
2013-03-08 06:46:00,30.3,30.0,29.86,SSE,154,0.0,-999.0,99,-99.99,,,0.00,weatherlink.com 1.10,2013-03-08 14:46:00,
2013-03-08 07:01:00,30.3,30.0,29.86,SSE,154,0.0,-999.0,99,-99.99,,,0.00,weatherlink.com 1.10,2013-03-08 15:01:00,
2013-03-08 07:16:00,30.3,30.0,29.87,SSE,154,0.0,-999.0,99,-99.99,,,0.00,weatherlink.com 1.10,2013-03-08 15:16:00,
2013-03-08 07:31:00,32.0,32.0,29.87,SSE,154,0.0,-999.0,100,-99.99,,,0.00,weatherlink.com 1.10,2013-03-08 15:31:00,
2013-03-08 07:46:00,36.1,36.0,29.87,SSE,154,0.0,-999.0,100,-99.99,,,0.00,weatherlink.com 1.10,2013-03-08 15:46:00,
2013-03-08 08:01:00,38.6,39.0,29.88,SSE,154,0.0,-999.0,100,-99.99,,,0.00,weatherlink.com 1.10,2013-03-08 16:01:00,
2013-03-08 08:16:00,41.1,41.0,29.88,SSE,154,0.0,-999.0,100,-99.99,,,0.00,weatherlink.com 1.10,2013-03-08 16:16:00,
2013-03-08 08:31:00,42.3,42.0,29.88,SSE,154,0.0,-999.0,100,-99.99,,,0.00,weatherlink.com 1.10,2013-03-08 16:31:00,
2013-03-08 08:46:00,44.6,45.0,29.89,SSE,154,0.0,-999.0,100,-99.99,,,0.00,weatherlink.com 1.10,2013-03-08 16:46:00,
2013-03-08 09:16:00,48.0,41.0,29.89,SSE,154,0.0,-999.0,78,-99.99,,,0.00,weatherlink.com 1.10,2013-03-08 17:16:00,
2013-03-08 09:31:00,50.2,42.0,29.89,SSE,153,0.0,-999.0,73,-99.99,,,0.00,weatherlink.com 1.10,2013-03-08 17:31:00,
2013-03-08 09:46:00,52.0,42.0,29.89,SSE,153,0.0,-999.0,68,-99.99,,,0.00,weatherlink.com 1.10,2013-03-08 17:46:00,
2013-03-08 10:01:00,52.9,42.0,29.89,SSE,153,0.0,-999.0,67,-99.99,,,0.00,weatherlink.com 1.10,2013-03-08 18:01:00,
2013-03-08 10:16:00,54.2,39.0,29.89,SSE,153,1.0,-999.0,58,-99.99,,,0.00,weatherlink.com 1.10,2013-03-08 18:16:00,
2013-03-08 10:31:00,56.3,41.0,29.88,ENE,67,1.0,-999.0,57,-99.99,,,0.00,weatherlink.com 1.10,2013-03-08 18:31:00,
2013-03-08 10:46:00,56.6,41.0,29.88,SE,140,2.0,-999.0,56,-99.99,,,0.00,weatherlink.com 1.10,2013-03-08 18:46:00,
2013-03-08 11:01:00,57.2,39.0,29.88,SSW,196,3.0,-999.0,51,-99.99,,,0.00,weatherlink.com 1.10,2013-03-08 19:01:00,
2013-03-08 11:16:00,58.1,40.0,29.88,South,188,0.0,-999.0,52,-99.99,,,0.00,weatherlink.com 1.10,2013-03-08 19:16:00,
2013-03-08 11:31:00,58.9,43.0,29.88,SSE,154,0.0,-999.0,55,-99.99,,,0.00,weatherlink.com 1.10,2013-03-08 19:31:00,
2013-03-08 11:46:00,60.0,41.0,29.87,NE,45,1.0,-999.0,49,-99.99,,,0.00,weatherlink.com 1.10,2013-03-08 19:46:00,
2013-03-08 12:01:00,60.0,41.0,29.87,North,5,2.0,-999.0,49,-99.99,,,0.00,weatherlink.com 1.10,2013-03-08 20:01:00,
2013-03-08 12:16:00,60.9,39.0,29.86,South,189,0.0,-999.0,45,-99.99,,,0.00,weatherlink.com 1.10,2013-03-08 20:16:00,
2013-03-08 12:31:00,62.0,37.0,29.86,NW,304,2.0,-999.0,40,-99.99,,,0.00,weatherlink.com 1.10,2013-03-08 20:31:00,
2013-03-08 12:46:00,62.0,39.0,29.85,SSE,154,0.0,-999.0,43,-99.99,,,0.00,weatherlink.com 1.10,2013-03-08 20:46:00,
2013-03-08 13:01:00,63.3,37.0,29.85,North,355,1.0,-999.0,38,-99.99,,,0.00,weatherlink.com 1.10,2013-03-08 21:01:00,
2013-03-08 13:16:00,63.3,41.0,29.84,WSW,257,0.0,-999.0,44,-99.99,,,0.00,weatherlink.com 1.10,2013-03-08 21:16:00,
2013-03-08 13:31:00,64.3,36.0,29.84,SW,216,1.0,-999.0,35,-99.99,,,0.00,weatherlink.com 1.10,2013-03-08 21:31:00,
2013-03-08 13:46:00,64.4,36.0,29.83,NNE,24,2.0,-999.0,35,-99.99,,,0.00,weatherlink.com 1.10,2013-03-08 21:46:00,
2013-03-08 14:01:00,64.8,34.0,29.83,SW,219,2.0,-999.0,32,-99.99,,,0.00,weatherlink.com 1.10,2013-03-08 22:01:00,
2013-03-08 14:16:00,64.6,42.0,29.83,NE,38,0.0,-999.0,44,-99.99,,,0.00,weatherlink.com 1.10,2013-03-08 22:16:00,
2013-03-08 14:31:00,64.3,39.0,29.84,NNW,347,3.0,-999.0,40,-99.99,,,0.00,weatherlink.com 1.10,2013-03-08 22:31:00,
2013-03-08 14:46:00,63.3,44.0,29.84,North,355,0.0,-999.0,49,-99.99,,,0.00,weatherlink.com 1.10,2013-03-08 22:46:00,
2013-03-08 15:01:00,61.7,44.0,29.84,SE,146,0.0,-999.0,53,-99.99,,,0.00,weatherlink.com 1.10,2013-03-08 23:01:00,
2013-03-08 15:16:00,60.4,44.0,29.84,ESE,121,0.0,-999.0,56,-99.99,,,0.00,weatherlink.com 1.10,2013-03-08 23:16:00,
2013-03-08 15:31:00,59.3,44.0,29.85,South,180,0.0,-999.0,58,-99.99,,,0.00,weatherlink.com 1.10,2013-03-08 23:31:00,
2013-03-08 15:47:00,59.0,44.0,29.85,SSE,147,0.0,-999.0,59,-99.99,,,0.00,weatherlink.com 1.10,2013-03-08 23:47:00,
2013-03-08 16:02:00,58.4,44.0,29.85,SE,133,1.0,-999.0,59,-99.99,,,0.00,weatherlink.com 1.10,2013-03-09 00:02:00,
2013-03-08 16:17:00,57.8,44.0,29.85,East,96,0.0,-999.0,61,-99.99,,,0.00,weatherlink.com 1.10,2013-03-09 00:17:00,
2013-03-08 16:32:00,57.2,44.0,29.85,NE,49,0.0,-999.0,61,-99.99,,,0.00,weatherlink.com 1.10,2013-03-09 00:32:00,
2013-03-08 16:47:00,56.4,43.0,29.86,SE,134,0.0,-999.0,61,-99.99,,,0.00,weatherlink.com 1.10,2013-03-09 00:47:00,
2013-03-08 17:02:00,55.7,44.0,29.87,ENE,71,0.0,-999.0,64,-99.99,,,0.00,weatherlink.com 1.10,2013-03-09 01:02:00,
2013-03-08 17:17:00,54.8,43.0,29.88,NNE,24,1.0,-999.0,64,-99.99,,,0.00,weatherlink.com 1.10,2013-03-09 01:17:00,
2013-03-08 17:32:00,54.2,41.0,29.89,ENE,59,0.0,-999.0,62,-99.99,,,0.00,weatherlink.com 1.10,2013-03-09 01:32:00,
2013-03-08 17:47:00,53.6,41.0,29.89,NW,319,0.0,-999.0,63,-99.99,,,0.00,weatherlink.com 1.10,2013-03-09 01:47:00,
2013-03-08 18:02:00,52.6,42.0,29.90,ESE,117,0.0,-999.0,67,-99.99,,,0.00,weatherlink.com 1.10,2013-03-09 02:02:00,
2013-03-08 18:17:00,50.8,42.0,29.91,SSW,193,0.0,-999.0,71,-99.99,,,0.00,weatherlink.com 1.10,2013-03-09 02:17:00,
2013-03-08 18:32:00,49.2,41.0,29.93,East,86,0.0,-999.0,73,-99.99,,,0.00,weatherlink.com 1.10,2013-03-09 02:32:00,
2013-03-08 18:47:00,47.9,40.0,29.93,East,86,0.0,-999.0,74,-99.99,,,0.00,weatherlink.com 1.10,2013-03-09 02:47:00,
2013-03-08 19:02:00,47.4,40.0,29.94,East,86,0.0,-999.0,74,-99.99,,,0.00,weatherlink.com 1.10,2013-03-09 03:02:00,
2013-03-08 19:17:00,46.7,40.0,29.95,East,86,0.0,-999.0,77,-99.99,,,0.00,weatherlink.com 1.10,2013-03-09 03:17:00,
2013-03-08 19:32:00,45.8,39.0,29.96,East,90,0.0,-999.0,76,-99.99,,,0.00,weatherlink.com 1.10,2013-03-09 03:32:00,
2013-03-08 19:47:00,46.1,39.0,29.96,East,90,0.0,-999.0,76,-99.99,,,0.00,weatherlink.com 1.10,2013-03-09 03:47:00,
2013-03-08 20:02:00,45.9,39.0,29.97,East,92,0.0,-999.0,76,-99.99,,,0.00,weatherlink.com 1.10,2013-03-09 04:02:00,
2013-03-08 20:17:00,45.2,38.0,29.97,East,92,0.0,-999.0,77,-99.99,,,0.00,weatherlink.com 1.10,2013-03-09 04:17:00,
2013-03-08 20:32:00,44.0,38.0,29.98,East,92,0.0,-999.0,80,-99.99,,,0.00,weatherlink.com 1.10,2013-03-09 04:32:00,
2013-03-08 20:47:00,42.7,37.0,29.98,East,92,0.0,-999.0,81,-99.99,,,0.00,weatherlink.com 1.10,2013-03-09 04:47:00,
2013-03-08 21:02:00,42.0,38.0,29.99,East,92,0.0,-999.0,84,-99.99,,,0.00,weatherlink.com 1.10,2013-03-09 05:02:00,
2013-03-08 21:17:00,41.3,37.0,30.00,East,92,0.0,-999.0,85,-99.99,,,0.00,weatherlink.com 1.10,2013-03-09 05:17:00,
2013-03-08 21:32:00,40.3,37.0,30.00,East,92,0.0,-999.0,86,-99.99,,,0.00,weatherlink.com 1.10,2013-03-09 05:32:00,
2013-03-08 21:47:00,39.6,36.0,30.01,East,92,0.0,-999.0,88,-99.99,,,0.00,weatherlink.com 1.10,2013-03-09 05:47:00,
2013-03-08 22:02:00,38.7,36.0,30.01,East,92,0.0,-999.0,89,-99.99,,,0.00,weatherlink.com 1.10,2013-03-09 06:02:00,
2013-03-08 22:18:00,38.7,36.0,30.02,East,92,0.0,-999.0,91,-99.99,,,0.00,weatherlink.com 1.10,2013-03-09 06:18:00,
2013-03-08 22:33:00,38.3,36.0,30.02,East,92,0.0,-999.0,91,-99.99,,,0.00,weatherlink.com 1.10,2013-03-09 06:33:00,
2013-03-08 22:48:00,38.0,36.0,30.02,East,92,0.0,-999.0,93,-99.99,,,0.00,weatherlink.com 1.10,2013-03-09 06:48:00,
2013-03-08 23:03:00,37.7,36.0,30.02,East,92,0.0,-999.0,93,-99.99,,,0.00,weatherlink.com 1.10,2013-03-09 07:03:00,
2013-03-08 23:18:00,37.1,35.0,30.02,East,92,0.0,-999.0,93,-99.99,,,0.00,weatherlink.com 1.10,2013-03-09 07:18:00,
2013-03-08 23:33:00,36.6,35.0,30.02,East,92,0.0,-999.0,94,-99.99,,,0.00,weatherlink.com 1.10,2013-03-09 07:33:00,
2013-03-08 23:48:00,36.1,35.0,30.02,East,92,0.0,-999.0,94,-99.99,,,0.00,weatherlink.com 1.10,2013-03-09 07:48:00,